createdAt,value
2023-05-19T00:02:09.008Z,18.4
2023-05-19T00:08:15.313Z,18.4
2023-05-19T00:14:21.054Z,18.4
2023-05-19T00:20:25.867Z,18.3
2023-05-19T00:26:31.396Z,18.3
2023-05-19T00:32:36.628Z,18.3
2023-05-19T00:38:41.782Z,18.3
2023-05-19T00:44:47.557Z,18.3
2023-05-19T00:50:52.925Z,18.3
2023-05-19T00:56:58.452Z,18.3
2023-05-19T01:03:04.469Z,18.3
2023-05-19T01:09:10.295Z,18.3
2023-05-19T01:15:16.393Z,18.3
2023-05-19T01:21:21.760Z,18.2
2023-05-19T01:27:26.905Z,18.2
2023-05-19T01:33:32.764Z,18.2
2023-05-19T01:39:38.708Z,18.2
2023-05-19T01:45:43.940Z,18.2
2023-05-19T01:51:50.072Z,18.2
2023-05-19T01:57:55.827Z,18.2
2023-05-19T02:04:01.244Z,18.2
2023-05-19T02:10:07.420Z,18.1
2023-05-19T02:16:12.970Z,18.1
2023-05-19T02:22:18.525Z,18.1
2023-05-19T02:28:24.679Z,18.1
2023-05-19T02:34:30.474Z,18.1
2023-05-19T02:40:36.251Z,18.1
2023-05-19T02:46:42.182Z,18.1
2023-05-19T02:52:48.428Z,18.1
2023-05-19T02:58:53.645Z,18
2023-05-19T03:04:59.175Z,18.1
2023-05-19T03:11:04.984Z,18
2023-05-19T03:17:10.251Z,18
2023-05-19T03:23:16.538Z,18
2023-05-19T03:29:21.931Z,18
2023-05-19T03:35:27.063Z,18
2023-05-19T03:41:33.633Z,18
2023-05-19T03:47:38.860Z,18
2023-05-19T03:53:43.796Z,18.1
2023-05-19T03:59:49.747Z,18.1
2023-05-19T04:05:54.864Z,18.2
2023-05-19T04:12:00.753Z,18.3
2023-05-19T04:18:06.717Z,18.3
2023-05-19T04:24:12.401Z,18.3
2023-05-19T04:30:18.739Z,18.4
2023-05-19T04:36:24.437Z,18.4
2023-05-19T04:42:29.767Z,18.4
2023-05-19T04:48:36.155Z,18.4
2023-05-19T04:54:41.187Z,18.4
2023-05-19T05:00:46.734Z,18.4
2023-05-19T05:06:52.271Z,18.5
2023-05-19T05:12:58.243Z,18.5
2023-05-19T05:19:03.483Z,18.5
2023-05-19T05:25:09.378Z,18.5
2023-05-19T05:31:15.365Z,18.5
2023-05-19T05:37:20.512Z,18.5
2023-05-19T05:43:26.113Z,18.6
2023-05-19T05:49:32.107Z,18.6
2023-05-19T05:55:37.281Z,18.6
2023-05-19T06:01:43.029Z,18.6
2023-05-19T06:07:49.036Z,18.6
2023-05-19T06:13:54.593Z,18.6
2023-05-19T06:20:00.193Z,18.7
2023-05-19T06:26:05.365Z,18.8
2023-05-19T06:32:10.882Z,18.9
2023-05-19T06:38:16.860Z,21.1
2023-05-19T06:44:23.479Z,22.8
2023-05-19T06:50:28.887Z,25.2
2023-05-19T06:56:35.032Z,25.1
2023-05-19T07:02:40.685Z,27.5
2023-05-19T07:08:46.395Z,22.3
2023-05-19T07:14:52.436Z,19.7
2023-05-19T07:20:57.364Z,19.4
2023-05-19T07:27:03.297Z,18.9
2023-05-19T07:33:08.801Z,18.8
2023-05-19T07:39:14.486Z,19.4
2023-05-19T07:45:20.418Z,19.1
2023-05-19T07:51:26.423Z,18.9
2023-05-19T07:57:32.411Z,19.3
2023-05-19T08:03:37.889Z,19.3
2023-05-19T08:09:43.757Z,19
2023-05-19T08:15:49.194Z,19
2023-05-19T08:21:55.482Z,18.9
2023-05-19T08:28:00.687Z,18.8
2023-05-19T08:34:06.245Z,18.8
2023-05-19T08:40:12.006Z,18.8
2023-05-19T08:46:17.134Z,18.8
2023-05-19T08:52:23.376Z,18.7
2023-05-19T08:58:28.968Z,18.7
2023-05-19T09:04:34.850Z,18.8
2023-05-19T09:10:40.738Z,18.8
2023-05-19T09:16:46.566Z,18.8
2023-05-19T09:22:52.674Z,18.9
2023-05-19T09:28:58.287Z,18.9
2023-05-19T09:35:03.837Z,18.9
2023-05-19T09:41:09.837Z,18.8
2023-05-19T09:47:15.402Z,18.9
2023-05-19T09:53:21.347Z,18.9
2023-05-19T09:59:27.244Z,18.9
2023-05-19T10:05:36.465Z,18.9
2023-05-19T10:11:42.347Z,18.9
2023-05-19T10:17:47.587Z,18.9
2023-05-19T10:23:53.699Z,18.9
2023-05-19T10:29:59.119Z,18.9
2023-05-19T10:36:04.510Z,18.9
2023-05-19T10:42:10.252Z,18.9
2023-05-19T10:48:15.494Z,19
2023-05-19T10:54:20.960Z,19
2023-05-19T11:00:26.962Z,18.9
2023-05-19T11:06:32.937Z,19
2023-05-19T11:12:38.130Z,19
2023-05-19T11:18:43.888Z,19
2023-05-19T11:24:49.637Z,19
2023-05-19T11:30:55.618Z,19.1
2023-05-19T11:37:01.007Z,19.1
2023-05-19T11:43:06.417Z,19
2023-05-19T11:49:11.930Z,19
2023-05-19T11:55:17.156Z,19
2023-05-19T12:01:23.692Z,19
2023-05-19T12:07:28.910Z,19
2023-05-19T12:13:34.856Z,19
2023-05-19T12:19:40.623Z,19
2023-05-19T12:25:45.842Z,19
2023-05-19T12:31:51.036Z,19.1
2023-05-19T12:37:56.978Z,19.1
2023-05-19T12:44:02.957Z,19.1
2023-05-19T12:50:08.871Z,19.1
2023-05-19T12:56:14.878Z,19.1
2023-05-19T13:02:20.735Z,19.2
2023-05-19T13:08:26.220Z,19.1
2023-05-19T13:14:32.068Z,19.2
2023-05-19T13:20:37.381Z,19.2
2023-05-19T13:26:42.750Z,19.2
2023-05-19T13:32:48.387Z,19.3
2023-05-19T13:38:53.339Z,19.2
2023-05-19T13:44:59.087Z,19.3
2023-05-19T13:51:04.642Z,19.3
2023-05-19T13:57:10.596Z,19.3
2023-05-19T14:03:16.643Z,19.3
2023-05-19T14:09:22.639Z,19.2
2023-05-19T14:15:28.786Z,19.2
2023-05-19T14:21:33.763Z,19.2
2023-05-19T14:27:39.492Z,19.2
2023-05-19T14:33:45.070Z,19.2
2023-05-19T14:39:50.288Z,19.3
2023-05-19T14:45:56.211Z,19.3
2023-05-19T14:52:01.844Z,19.4
2023-05-19T14:58:12.954Z,19.3
2023-05-19T15:04:31.026Z,19.3
2023-05-19T15:10:36.742Z,19.3
2023-05-19T15:16:42.597Z,19.3
2023-05-19T15:22:48.693Z,19.3
2023-05-19T15:28:54.108Z,19.3
2023-05-19T15:34:59.665Z,19.3
2023-05-19T15:41:04.835Z,19.4
2023-05-19T15:47:10.072Z,19.4
2023-05-19T15:53:15.746Z,19.4
2023-05-19T15:59:20.970Z,19.4
2023-05-19T16:05:26.884Z,19.4
2023-05-19T16:11:32.256Z,19.3
2023-05-19T16:17:37.742Z,19.3
2023-05-19T16:23:43.600Z,19.3
2023-05-19T16:29:48.981Z,19.3
2023-05-19T16:35:54.610Z,19.3
2023-05-19T16:42:00.328Z,19.4
2023-05-19T16:48:05.556Z,19.4
2023-05-19T16:54:11.889Z,19.3
2023-05-19T17:00:17.091Z,19.3
2023-05-19T17:06:22.618Z,19.3
2023-05-19T17:12:28.232Z,19.3
2023-05-19T17:18:33.819Z,19.3
2023-05-19T17:24:39.542Z,19.3
2023-05-19T17:30:44.958Z,19.3
2023-05-19T17:36:50.696Z,19.3
2023-05-19T17:42:56.104Z,19.3
2023-05-19T17:49:02.264Z,19.3
2023-05-19T17:55:08.026Z,19.3
2023-05-19T18:01:13.603Z,19.3
2023-05-19T18:07:19.164Z,19.3
2023-05-19T18:13:25.019Z,19.3
2023-05-19T18:19:30.793Z,19.3
2023-05-19T18:25:37.314Z,19.3
2023-05-19T18:31:42.544Z,19.3
2023-05-19T18:37:48.462Z,19.3
2023-05-19T18:43:54.120Z,19.3
2023-05-19T18:50:00.300Z,19.3
2023-05-19T18:56:06.051Z,19.3
2023-05-19T19:02:11.582Z,19.3
2023-05-19T19:08:17.350Z,19.3
2023-05-19T19:14:22.566Z,19.3
2023-05-19T19:20:28.493Z,19.3
2023-05-19T19:26:34.070Z,19.3
2023-05-19T19:32:39.710Z,19.3
2023-05-19T19:38:45.824Z,19.3
2023-05-19T19:44:51.613Z,19.2
2023-05-19T19:50:57.021Z,19.2
2023-05-19T19:57:02.870Z,19.2
2023-05-19T20:03:08.404Z,19.2
2023-05-19T20:09:14.163Z,19.2
2023-05-19T20:15:20.507Z,19.2
2023-05-19T20:21:26.053Z,19.2
2023-05-19T20:27:31.523Z,19.2
2023-05-19T20:33:37.628Z,19.2
2023-05-19T20:39:43.402Z,19.2
2023-05-19T20:45:49.116Z,19.2
2023-05-19T20:51:54.957Z,19.2
2023-05-19T20:58:00.957Z,19.2
2023-05-19T21:04:06.331Z,19.2
2023-05-19T21:10:11.725Z,19.2
2023-05-19T21:16:17.488Z,19.2
2023-05-19T21:22:23.240Z,19.2
2023-05-19T21:28:28.891Z,19.2
2023-05-19T21:34:34.569Z,19.2
2023-05-19T21:40:39.795Z,19.2
2023-05-19T21:46:45.372Z,19.2
2023-05-19T21:52:51.557Z,19.2
2023-05-19T21:58:56.920Z,19.2
2023-05-19T22:05:02.679Z,19.2
2023-05-19T22:11:08.010Z,19.2
2023-05-19T22:17:13.435Z,19.2
2023-05-19T22:23:19.475Z,19.2
2023-05-19T22:29:24.945Z,19.2
2023-05-19T22:35:30.368Z,19.2
2023-05-19T22:41:36.701Z,19.1
2023-05-19T22:47:42.463Z,19.1
2023-05-19T22:53:47.836Z,19.1
2023-05-19T22:59:53.623Z,19.1
2023-05-19T23:05:59.626Z,19.1
2023-05-19T23:12:05.243Z,19.1
2023-05-19T23:18:10.795Z,19.1
2023-05-19T23:24:16.551Z,19.1
2023-05-19T23:30:22.152Z,19
2023-05-19T23:36:28.073Z,19
2023-05-19T23:42:34.221Z,19
2023-05-19T23:48:39.469Z,19
2023-05-19T23:54:45.621Z,19
